createdAt,value
2023-05-02T00:02:23.838Z,54.53
2023-05-02T00:05:26.192Z,54.88
2023-05-02T00:08:27.657Z,54.63
2023-05-02T00:11:29.945Z,54.82
2023-05-02T00:14:31.198Z,53.97
2023-05-02T00:17:32.696Z,54.57
2023-05-02T00:20:34.029Z,55.36
2023-05-02T00:23:35.431Z,54.96
2023-05-02T00:26:37.508Z,55.08
2023-05-02T00:29:38.766Z,54.36
2023-05-02T00:32:40.190Z,55.12
2023-05-02T00:35:41.634Z,55.07
2023-05-02T00:38:43.183Z,55.32
2023-05-02T00:41:45.140Z,55.97
2023-05-02T00:44:46.688Z,55.54
2023-05-02T00:47:49.496Z,55.78
2023-05-02T00:50:51.366Z,55.95
2023-05-02T00:53:53.561Z,55.58
2023-05-02T00:56:55.553Z,54.81
2023-05-02T00:59:57.362Z,54.75
2023-05-02T01:03:10.401Z,55.39
2023-05-02T01:06:22.861Z,54.79
2023-05-02T01:09:34.939Z,54.04
2023-05-02T01:12:42.659Z,53.29
2023-05-02T01:15:45.351Z,53.17
2023-05-02T01:18:47.805Z,53.30
2023-05-02T01:21:50.879Z,52.40
2023-05-02T01:25:00.251Z,53.01
2023-05-02T01:28:14.730Z,53.08
2023-05-02T01:31:17.943Z,52.17
2023-05-02T01:34:21.918Z,52.35
2023-05-02T01:37:24.343Z,52.16
2023-05-02T01:40:26.338Z,52.10
2023-05-02T01:43:28.066Z,52.65
2023-05-02T01:46:33.143Z,52.23
2023-05-02T01:49:36.287Z,52.72
2023-05-02T01:52:38.218Z,52.53
2023-05-02T01:55:41.989Z,52.88
2023-05-02T01:58:45.257Z,53.74
2023-05-02T02:01:49.840Z,54.18
2023-05-02T02:04:53.163Z,54.51
2023-05-02T02:07:54.524Z,55.17
2023-05-02T02:11:00.376Z,54.67
2023-05-02T02:14:07.105Z,55.19
2023-05-02T02:17:15.832Z,55.54
2023-05-02T02:20:18.536Z,55.82
2023-05-02T02:23:22.707Z,55.43
2023-05-02T02:26:24.172Z,55.88
2023-05-02T02:29:25.638Z,55.53
2023-05-02T02:32:27.703Z,56.41
2023-05-02T02:35:34.680Z,55.89
2023-05-02T02:38:42.894Z,56.16
2023-05-02T02:41:55.031Z,56.69
2023-05-02T02:45:04.729Z,56.98
2023-05-02T02:48:19.186Z,57.06
2023-05-02T02:51:29.443Z,57.25
2023-05-02T02:54:35.057Z,56.86
2023-05-02T02:57:40.885Z,57.01
2023-05-02T03:00:42.524Z,57.41
2023-05-02T03:03:45.195Z,57.38
2023-05-02T03:06:46.903Z,57.30
2023-05-02T03:09:48.258Z,57.11
2023-05-02T03:12:49.804Z,57.04
2023-05-02T03:16:23.058Z,57.28
2023-05-02T03:19:25.731Z,57.17
2023-05-02T03:22:27.012Z,57.22
2023-05-02T03:25:28.357Z,57.54
2023-05-02T03:28:29.827Z,57.65
2023-05-02T03:31:31.141Z,56.98
2023-05-02T03:34:33.115Z,57.00
2023-05-02T03:37:34.674Z,57.71
2023-05-02T03:40:36.100Z,57.88
2023-05-02T03:43:37.355Z,58.07
2023-05-02T03:46:38.680Z,58.38
2023-05-02T03:49:40.809Z,58.10
2023-05-02T03:52:42.102Z,58.74
2023-05-02T03:55:43.393Z,58.98
2023-05-02T03:58:44.878Z,59.66
2023-05-02T04:01:48.896Z,59.19
2023-05-02T04:04:51.281Z,59.62
2023-05-02T04:07:52.561Z,59.68
2023-05-02T04:10:53.970Z,59.25
2023-05-02T04:13:55.266Z,59.66
2023-05-02T04:16:56.931Z,60.09
2023-05-02T04:20:00.013Z,59.46
2023-05-02T04:23:02.342Z,59.33
2023-05-02T04:26:03.821Z,59.16
2023-05-02T04:29:05.192Z,58.60
2023-05-02T04:32:07.054Z,58.99
2023-05-02T04:35:10.189Z,58.65
2023-05-02T04:38:11.698Z,58.39
2023-05-02T04:41:13.212Z,58.08
2023-05-02T04:44:14.655Z,58.04
2023-05-02T04:47:16.116Z,57.15
2023-05-02T04:50:18.264Z,57.73
2023-05-02T04:53:21.437Z,56.23
2023-05-02T04:56:22.749Z,56.57
2023-05-02T04:59:24.021Z,55.99
2023-05-02T05:02:25.839Z,55.68
2023-05-02T05:05:28.018Z,54.72
2023-05-02T05:08:29.349Z,54.77
2023-05-02T05:11:30.782Z,55.97
2023-05-02T05:14:32.101Z,55.51
2023-05-02T05:17:33.768Z,55.52
2023-05-02T05:20:35.828Z,55.79
2023-05-02T05:23:37.880Z,55.77
2023-05-02T05:26:39.288Z,54.99
2023-05-02T05:29:40.564Z,53.97
2023-05-02T05:32:42.048Z,53.16
2023-05-02T05:35:44.184Z,52.35
2023-05-02T05:38:45.700Z,52.11
2023-05-02T05:41:47.108Z,53.51
2023-05-02T05:44:48.537Z,52.88
2023-05-02T05:47:50.525Z,53.35
2023-05-02T05:50:53.631Z,52.12
2023-05-02T05:53:55.061Z,53.41
2023-05-02T05:56:56.468Z,51.88
2023-05-02T05:59:57.871Z,50.92
2023-05-02T06:02:59.610Z,51.32
2023-05-02T06:06:01.801Z,51.54
2023-05-02T06:09:03.854Z,51.02
2023-05-02T06:12:05.552Z,52.40
2023-05-02T06:15:07.593Z,52.61
2023-05-02T06:18:09.093Z,52.16
2023-05-02T06:21:11.201Z,52.16
2023-05-02T06:24:12.572Z,51.71
2023-05-02T06:27:13.966Z,51.15
2023-05-02T06:30:15.393Z,49.90
2023-05-02T06:33:16.745Z,50.81
2023-05-02T06:36:18.751Z,49.12
2023-05-02T06:39:20.046Z,48.28
2023-05-02T06:42:21.308Z,49.08
2023-05-02T06:45:22.657Z,48.35
2023-05-02T06:48:24.082Z,47.12
2023-05-02T06:51:26.950Z,47.70
2023-05-02T06:54:28.268Z,47.69
2023-05-02T06:57:29.735Z,49.18
2023-05-02T07:00:31.221Z,49.68
2023-05-02T07:03:32.637Z,49.22
2023-05-02T07:06:34.920Z,48.83
2023-05-02T07:09:36.272Z,48.08
2023-05-02T07:12:38.175Z,48.33
2023-05-02T07:15:39.660Z,47.53
2023-05-02T07:18:41.607Z,48.14
2023-05-02T07:21:43.552Z,48.70
2023-05-02T07:24:44.913Z,48.23
2023-05-02T07:27:46.299Z,48.82
2023-05-02T07:30:47.683Z,48.46
2023-05-02T07:33:48.921Z,50.47
2023-05-02T07:36:50.882Z,49.18
2023-05-02T07:39:52.459Z,49.30
2023-05-02T07:42:53.776Z,49.23
2023-05-02T07:45:55.377Z,50.07
2023-05-02T07:48:56.844Z,50.83
2023-05-02T07:51:58.785Z,50.40
2023-05-02T07:55:00.420Z,52.33
2023-05-02T07:58:01.786Z,52.05
2023-05-02T08:01:03.460Z,51.24
2023-05-02T08:04:05.356Z,52.22
2023-05-02T08:07:07.556Z,52.60
2023-05-02T08:10:10.143Z,54.13
2023-05-02T08:13:11.762Z,53.79
2023-05-02T08:16:13.280Z,54.91
2023-05-02T08:19:15.158Z,54.27
2023-05-02T08:22:17.099Z,54.03
2023-05-02T08:25:18.548Z,54.70
2023-05-02T08:28:19.870Z,54.31
2023-05-02T08:31:21.596Z,53.50
2023-05-02T08:34:22.880Z,53.97
2023-05-02T08:37:25.226Z,54.97
2023-05-02T08:40:38.183Z,55.23
2023-05-02T08:43:44.058Z,55.96
2023-05-02T08:46:46.238Z,56.14
2023-05-02T08:49:49.686Z,55.88
2023-05-02T08:52:52.536Z,54.63
2023-05-02T08:55:54.020Z,54.87
2023-05-02T08:58:55.651Z,54.66
2023-05-02T09:02:00.762Z,55.38
2023-05-02T09:05:07.306Z,54.04
2023-05-02T09:08:09.392Z,54.70
2023-05-02T09:11:12.372Z,54.52
2023-05-02T09:14:14.768Z,54.92
2023-05-02T09:17:16.278Z,55.02
2023-05-02T09:20:17.771Z,54.39
2023-05-02T09:23:19.932Z,56.19
2023-05-02T09:26:22.080Z,55.99
2023-05-02T09:29:23.682Z,55.68
2023-05-02T09:32:44.689Z,57.01
2023-05-02T09:35:53.502Z,55.24
2023-05-02T09:39:10.112Z,55.88
2023-05-02T09:42:11.527Z,54.96
2023-05-02T09:45:23.229Z,55.19
2023-05-02T09:48:25.879Z,55.49
2023-05-02T09:51:27.187Z,55.01
2023-05-02T09:54:38.135Z,55.67
2023-05-02T09:57:40.095Z,55.31
2023-05-02T10:00:43.410Z,55.92
2023-05-02T10:03:47.519Z,56.45
2023-05-02T10:06:51.747Z,56.07
2023-05-02T10:09:58.261Z,56.19
2023-05-02T10:13:01.125Z,57.04
2023-05-02T10:16:04.444Z,56.17
2023-05-02T10:19:09.742Z,57.64
2023-05-02T10:22:12.514Z,58.24
2023-05-02T10:25:14.964Z,59.16
2023-05-02T10:28:16.670Z,60.51
2023-05-02T10:31:18.716Z,60.95
2023-05-02T10:34:21.184Z,61.54
2023-05-02T10:37:23.777Z,61.93
2023-05-02T10:40:26.124Z,62.17
2023-05-02T10:43:30.623Z,61.69
2023-05-02T10:46:33.449Z,61.63
2023-05-02T10:49:49.815Z,61.17
2023-05-02T10:52:51.165Z,61.13
2023-05-02T10:56:13.218Z,59.74
2023-05-02T10:59:36.187Z,58.50
2023-05-02T11:02:48.581Z,55.81
2023-05-02T11:06:05.455Z,54.31
2023-05-02T11:09:35.177Z,52.57
2023-05-02T11:12:45.039Z,51.24
2023-05-02T11:15:59.092Z,49.98
2023-05-02T11:19:01.124Z,50.54
2023-05-02T11:22:32.590Z,48.53
2023-05-02T11:25:36.225Z,47.58
2023-05-02T11:28:43.778Z,48.20
2023-05-02T11:32:03.525Z,48.00
2023-05-02T11:35:06.522Z,47.91
2023-05-02T11:38:11.404Z,47.32
2023-05-02T11:41:13.140Z,47.05
2023-05-02T11:44:15.274Z,47.69
2023-05-02T11:47:16.602Z,48.19
2023-05-02T11:50:18.152Z,48.77
2023-05-02T11:53:22.409Z,48.52
2023-05-02T11:56:25.807Z,49.00
2023-05-02T11:59:27.888Z,47.27
2023-05-02T12:02:36.235Z,46.93
2023-05-02T12:05:37.630Z,46.56
2023-05-02T12:08:40.149Z,46.54
2023-05-02T12:11:41.457Z,47.43
2023-05-02T12:14:43.722Z,47.38
2023-05-02T12:17:48.161Z,46.89
2023-05-02T12:20:51.417Z,46.62
2023-05-02T12:23:53.349Z,45.53
2023-05-02T12:27:09.198Z,44.83
2023-05-02T12:30:25.392Z,44.28
2023-05-02T12:33:26.755Z,44.02
2023-05-02T12:36:28.925Z,44.32
2023-05-02T12:39:37.549Z,45.42
2023-05-02T12:42:39.081Z,44.27
2023-05-02T12:45:41.257Z,42.62
2023-05-02T12:48:44.207Z,43.77
2023-05-02T12:51:55.001Z,43.96
2023-05-02T12:55:17.403Z,43.12
2023-05-02T12:58:18.945Z,42.68
2023-05-02T13:01:20.954Z,41.34
2023-05-02T13:04:22.494Z,40.91
2023-05-02T13:07:24.025Z,41.34
2023-05-02T13:10:26.059Z,41.28
2023-05-02T13:13:27.494Z,42.46
2023-05-02T13:16:29.559Z,42.17
2023-05-02T13:19:30.879Z,42.61
2023-05-02T13:22:32.210Z,42.38
2023-05-02T13:25:33.693Z,42.44
2023-05-02T13:28:36.620Z,43.05
2023-05-02T13:31:38.899Z,42.56
2023-05-02T13:34:40.996Z,42.09
2023-05-02T13:37:42.279Z,40.80
2023-05-02T13:40:43.733Z,42.27
2023-05-02T13:43:45.562Z,41.55
2023-05-02T13:46:48.437Z,42.34
2023-05-02T13:49:50.117Z,42.54
2023-05-02T13:52:51.539Z,42.59
2023-05-02T13:55:53.072Z,43.04
2023-05-02T13:58:54.447Z,43.90
2023-05-02T14:01:56.532Z,43.65
2023-05-02T14:04:57.869Z,43.13
2023-05-02T14:07:59.144Z,43.43
2023-05-02T14:11:00.428Z,42.58
2023-05-02T14:14:01.900Z,43.05
2023-05-02T14:17:04.633Z,43.07
2023-05-02T14:20:09.677Z,44.13
2023-05-02T14:23:11.298Z,43.35
2023-05-02T14:26:13.294Z,44.71
2023-05-02T14:29:14.769Z,45.28
2023-05-02T14:32:17.049Z,44.20
2023-05-02T14:35:18.587Z,43.83
2023-05-02T14:38:19.884Z,45.02
2023-05-02T14:41:21.306Z,45.11
2023-05-02T14:44:22.825Z,45.87
2023-05-02T14:47:24.788Z,46.12
2023-05-02T14:50:26.228Z,45.55
2023-05-02T14:53:27.514Z,45.05
2023-05-02T14:56:28.922Z,44.64
2023-05-02T14:59:30.657Z,44.13
2023-05-02T15:02:32.793Z,43.86
2023-05-02T15:05:35.529Z,42.92
2023-05-02T15:08:38.060Z,42.05
2023-05-02T15:11:40.471Z,42.23
2023-05-02T15:14:41.923Z,41.13
2023-05-02T15:17:44.300Z,40.44
2023-05-02T15:20:45.651Z,42.00
2023-05-02T15:23:47.069Z,41.46
2023-05-02T15:26:48.624Z,41.53
2023-05-02T15:29:50.364Z,40.90
2023-05-02T15:32:52.479Z,41.44
2023-05-02T15:35:55.517Z,41.38
2023-05-02T15:38:56.955Z,40.62
2023-05-02T15:41:58.217Z,40.60
2023-05-02T15:44:59.605Z,39.63
2023-05-02T15:48:01.741Z,40.28
2023-05-02T15:51:04.665Z,40.87
2023-05-02T15:54:06.316Z,41.26
2023-05-02T15:57:07.736Z,41.32
2023-05-02T16:00:15.851Z,41.39
2023-05-02T16:03:17.842Z,42.33
2023-05-02T16:06:19.419Z,42.61
2023-05-02T16:09:20.733Z,42.58
2023-05-02T16:12:22.047Z,41.72
2023-05-02T16:15:23.678Z,42.68
2023-05-02T16:18:27.380Z,43.17
2023-05-02T16:21:28.685Z,43.60
2023-05-02T16:24:29.968Z,43.19
2023-05-02T16:27:32.793Z,42.76
2023-05-02T16:30:45.838Z,43.04
2023-05-02T16:33:48.745Z,43.72
2023-05-02T16:36:50.706Z,44.46
2023-05-02T16:39:52.035Z,44.48
2023-05-02T16:42:53.539Z,44.72
2023-05-02T16:46:01.384Z,43.96
2023-05-02T16:49:03.442Z,43.97
2023-05-02T16:52:05.126Z,43.25
2023-05-02T16:55:06.879Z,44.00
2023-05-02T16:58:08.177Z,43.41
2023-05-02T17:01:09.779Z,43.94
2023-05-02T17:04:11.838Z,44.19
2023-05-02T17:07:13.139Z,44.57
2023-05-02T17:10:14.561Z,44.12
2023-05-02T17:13:15.932Z,44.28
2023-05-02T17:16:17.844Z,43.53
2023-05-02T17:19:19.948Z,43.61
2023-05-02T17:22:21.274Z,43.47
2023-05-02T17:25:22.765Z,42.89
2023-05-02T17:28:24.060Z,42.49
2023-05-02T17:31:25.427Z,42.09
2023-05-02T17:34:29.538Z,43.08
2023-05-02T17:37:32.104Z,42.96
2023-05-02T17:40:34.142Z,42.75
2023-05-02T17:43:37.382Z,42.72
2023-05-02T17:46:38.702Z,41.79
2023-05-02T17:49:41.189Z,41.84
2023-05-02T17:52:42.637Z,42.65
2023-05-02T17:55:43.952Z,42.71
2023-05-02T17:58:45.469Z,42.84
2023-05-02T18:01:46.804Z,43.83
2023-05-02T18:04:49.238Z,43.86
2023-05-02T18:07:50.489Z,43.13
2023-05-02T18:10:51.911Z,43.38
2023-05-02T18:13:53.212Z,44.41
2023-05-02T18:16:55.628Z,44.20
2023-05-02T18:19:57.853Z,43.99
2023-05-02T18:23:00.491Z,43.76
2023-05-02T18:26:01.939Z,43.92
2023-05-02T18:29:03.200Z,43.50
2023-05-02T18:32:04.629Z,43.84
2023-05-02T18:35:10.401Z,43.63
2023-05-02T18:38:12.028Z,44.36
2023-05-02T18:41:13.247Z,43.97
2023-05-02T18:44:14.519Z,43.29
2023-05-02T18:47:16.497Z,43.64
2023-05-02T18:50:18.598Z,44.16
2023-05-02T18:53:22.152Z,44.17
2023-05-02T18:56:24.684Z,44.47
2023-05-02T18:59:26.134Z,44.83
2023-05-02T19:02:27.479Z,45.47
2023-05-02T19:05:29.789Z,46.03
2023-05-02T19:08:31.595Z,45.51
2023-05-02T19:11:33.082Z,45.35
2023-05-02T19:14:35.306Z,45.79
2023-05-02T19:17:36.711Z,46.21
2023-05-02T19:20:38.880Z,46.21
2023-05-02T19:23:40.538Z,45.57
2023-05-02T19:26:41.965Z,46.40
2023-05-02T19:29:43.662Z,46.28
2023-05-02T19:32:44.980Z,46.44
2023-05-02T19:35:47.328Z,46.49
2023-05-02T19:38:49.789Z,46.69
2023-05-02T19:41:51.266Z,46.95
2023-05-02T19:44:52.616Z,47.10
2023-05-02T19:47:53.969Z,46.64
2023-05-02T19:50:56.087Z,46.56
2023-05-02T19:53:57.928Z,46.78
2023-05-02T19:56:59.417Z,46.60
2023-05-02T20:00:00.770Z,47.55
2023-05-02T20:03:02.913Z,46.92
2023-05-02T20:06:05.330Z,47.94
2023-05-02T20:09:06.718Z,47.42
2023-05-02T20:12:08.249Z,47.11
2023-05-02T20:15:10.174Z,47.64
2023-05-02T20:18:12.784Z,48.07
2023-05-02T20:21:15.592Z,48.27
2023-05-02T20:24:17.029Z,48.43
2023-05-02T20:27:18.440Z,48.78
2023-05-02T20:30:19.988Z,48.75
2023-05-02T20:33:25.061Z,48.45
2023-05-02T20:36:30.092Z,48.53
2023-05-02T20:39:31.700Z,49.08
2023-05-02T20:42:33.018Z,49.04
2023-05-02T20:45:34.582Z,48.89
2023-05-02T20:48:35.888Z,49.15
2023-05-02T20:51:37.951Z,49.22
2023-05-02T20:54:39.402Z,48.73
2023-05-02T20:57:40.948Z,48.49
2023-05-02T21:00:42.303Z,49.00
2023-05-02T21:03:43.782Z,48.74
2023-05-02T21:06:46.561Z,49.25
2023-05-02T21:09:48.252Z,49.13
2023-05-02T21:12:49.598Z,48.64
2023-05-02T21:15:51.074Z,49.00
2023-05-02T21:18:52.599Z,49.44
2023-05-02T21:21:54.556Z,48.57
2023-05-02T21:24:56.051Z,49.48
2023-05-02T21:27:57.559Z,48.93
2023-05-02T21:31:00.816Z,49.03
2023-05-02T21:34:02.256Z,49.02
2023-05-02T21:37:04.214Z,48.73
2023-05-02T21:40:07.023Z,48.92
2023-05-02T21:43:08.319Z,49.04
2023-05-02T21:46:10.711Z,48.88
2023-05-02T21:49:11.975Z,48.80
2023-05-02T21:52:14.029Z,48.78
2023-05-02T21:55:15.637Z,48.58
2023-05-02T21:58:16.915Z,49.18
2023-05-02T22:01:18.348Z,48.85
2023-05-02T22:04:19.875Z,48.68
2023-05-02T22:07:21.943Z,48.57
2023-05-02T22:10:23.285Z,48.56
2023-05-02T22:13:24.786Z,48.19
2023-05-02T22:16:26.292Z,47.91
2023-05-02T22:19:27.673Z,48.07
2023-05-02T22:22:29.817Z,48.00
2023-05-02T22:25:31.323Z,47.86
2023-05-02T22:28:32.911Z,48.18
2023-05-02T22:31:34.212Z,48.13
2023-05-02T22:34:35.613Z,48.74
2023-05-02T22:37:37.575Z,48.98
2023-05-02T22:40:38.989Z,48.35
2023-05-02T22:43:40.235Z,48.41
2023-05-02T22:46:41.696Z,48.83
2023-05-02T22:49:43.810Z,48.48
2023-05-02T22:52:46.325Z,48.66
2023-05-02T22:55:47.855Z,48.74
2023-05-02T22:58:49.198Z,48.75
2023-05-02T23:01:50.740Z,48.70
2023-05-02T23:04:52.074Z,48.96
2023-05-02T23:07:54.815Z,48.62
2023-05-02T23:10:56.257Z,49.07
2023-05-02T23:13:57.658Z,48.99
2023-05-02T23:17:00.879Z,48.65
2023-05-02T23:20:02.533Z,48.76
2023-05-02T23:23:05.070Z,48.72
2023-05-02T23:26:06.638Z,48.87
2023-05-02T23:29:08.035Z,48.54
2023-05-02T23:32:09.399Z,49.05
2023-05-02T23:35:11.787Z,48.59
2023-05-02T23:38:14.013Z,49.66
2023-05-02T23:41:15.515Z,49.00
2023-05-02T23:44:16.937Z,49.82
2023-05-02T23:47:18.838Z,49.15
2023-05-02T23:50:20.215Z,48.83
2023-05-02T23:53:22.148Z,49.17
2023-05-02T23:56:23.582Z,48.99
2023-05-02T23:59:24.876Z,48.95
